createdAt,value
2022-08-26T00:01:59.496Z,99512.34
2022-08-26T00:05:04.103Z,99514.16
2022-08-26T00:08:08.384Z,99505.87
2022-08-26T00:11:16.150Z,99497.75
2022-08-26T00:14:31.244Z,99501.41
2022-08-26T00:17:35.087Z,99498.50
2022-08-26T00:20:39.499Z,99511.22
2022-08-26T00:23:46.469Z,99503.84
2022-08-26T00:26:49.479Z,99510.06
2022-08-26T00:29:52.603Z,99512.66
2022-08-26T00:32:57.372Z,99505.13
2022-08-26T00:36:01.447Z,99501.00
2022-08-26T00:39:07.214Z,99497.16
2022-08-26T00:42:10.407Z,99494.09
2022-08-26T00:45:14.523Z,99497.16
2022-08-26T00:48:20.942Z,99488.72
2022-08-26T00:51:29.799Z,99487.94
2022-08-26T00:54:36.997Z,99492.25
2022-08-26T00:57:40.895Z,99497.00
2022-08-26T01:00:45.258Z,99503.09
2022-08-26T01:03:48.701Z,99500.63
2022-08-26T01:06:53.395Z,99504.16
2022-08-26T01:09:57.402Z,99499.69
2022-08-26T01:13:10.176Z,99506.75
2022-08-26T01:16:15.010Z,99505.22
2022-08-26T01:19:21.166Z,99499.81
2022-08-26T01:22:31.849Z,99505.34
2022-08-26T01:25:39.606Z,99501.97
2022-08-26T01:28:50.652Z,99498.44
2022-08-26T01:31:57.743Z,99490.91
2022-08-26T01:35:01.191Z,99493.25
2022-08-26T01:38:04.910Z,99495.69
2022-08-26T01:41:16.042Z,99490.31
2022-08-26T01:44:22.123Z,99489.66
2022-08-26T01:47:26.483Z,99495.63
2022-08-26T01:50:30.714Z,99494.09
2022-08-26T01:53:33.767Z,99489.78
2022-08-26T01:56:36.947Z,99484.72
2022-08-26T01:59:39.775Z,99486.38
2022-08-26T02:02:44.665Z,99482.56
2022-08-26T02:06:04.127Z,99483.00
2022-08-26T02:09:08.043Z,99476.72
2022-08-26T02:12:12.597Z,99478.84
2022-08-26T02:15:15.365Z,99475.78
2022-08-26T02:18:20.360Z,99482.59
2022-08-26T02:21:25.018Z,99481.69
2022-08-26T02:24:47.272Z,99481.03
2022-08-26T02:27:51.334Z,99484.03
2022-08-26T02:30:55.626Z,99477.72
2022-08-26T02:34:21.280Z,99485.31
2022-08-26T02:37:30.623Z,99479.62
2022-08-26T02:40:36.873Z,99472.72
2022-08-26T02:43:40.048Z,99476.38
2022-08-26T02:46:47.171Z,99473.63
2022-08-26T02:49:50.713Z,99469.75
2022-08-26T02:52:53.808Z,99475.06
2022-08-26T02:55:56.905Z,99469.69
2022-08-26T02:58:59.816Z,99472.12
2022-08-26T03:02:04.173Z,99463.66
2022-08-26T03:05:08.000Z,99469.75
2022-08-26T03:08:14.575Z,99472.63
2022-08-26T03:11:18.889Z,99467.47
2022-08-26T03:14:24.085Z,99466.06
2022-08-26T03:17:27.062Z,99467.28
2022-08-26T03:20:30.217Z,99461.34
2022-08-26T03:23:33.922Z,99463.00
2022-08-26T03:26:38.061Z,99461.00
2022-08-26T03:30:00.330Z,99461.91
2022-08-26T03:33:04.826Z,99452.53
2022-08-26T03:36:08.043Z,99461.03
2022-08-26T03:39:12.090Z,99461.44
2022-08-26T03:42:16.783Z,99450.91
2022-08-26T03:45:21.203Z,99450.56
2022-08-26T03:48:23.886Z,99453.88
2022-08-26T03:51:28.296Z,99455.09
2022-08-26T03:54:31.773Z,99454.13
2022-08-26T03:57:37.251Z,99454.44
2022-08-26T04:00:41.147Z,99456.41
2022-08-26T04:04:01.727Z,99456.41
2022-08-26T04:07:06.319Z,99465.44
2022-08-26T04:10:11.713Z,99454.44
2022-08-26T04:13:16.282Z,99458.63
2022-08-26T04:16:20.229Z,99453.88
2022-08-26T05:57:54.566Z,99480.56
2022-08-26T06:01:02.850Z,99481.19
2022-08-26T08:35:43.356Z,99472.81
2022-08-26T08:38:46.973Z,99472.50
2022-08-26T08:42:04.449Z,99470.41
2022-08-26T08:45:35.915Z,99470.03
2022-08-26T08:48:43.653Z,99459.41
2022-08-26T08:51:51.354Z,99460.34
2022-08-26T08:54:54.704Z,99457.78
2022-08-26T08:58:06.626Z,99462.13
2022-08-26T09:05:56.183Z,99463.50
2022-08-26T09:13:39.451Z,99463.81
2022-08-26T09:17:01.487Z,99455.28
2022-08-26T09:20:18.256Z,99453.22
2022-08-26T09:23:25.244Z,99455.53
2022-08-26T09:26:41.138Z,99449.78
2022-08-26T09:29:45.762Z,99438.81
2022-08-26T09:33:10.218Z,99439.09
2022-08-26T09:36:26.591Z,99434.03
2022-08-26T09:39:57.078Z,99438.88
2022-08-26T09:43:23.238Z,99439.66
2022-08-26T09:46:28.303Z,99441.19
2022-08-26T09:49:41.110Z,99439.16
2022-08-26T09:52:44.812Z,99432.53
2022-08-26T09:55:52.744Z,99442.97
2022-08-26T09:58:57.144Z,99435.84
2022-08-26T10:02:19.265Z,99430.50
2022-08-26T10:05:51.277Z,99419.28
2022-08-26T10:08:57.143Z,99423.56
2022-08-26T10:12:08.359Z,99417.50
2022-08-26T10:15:13.819Z,99427.91
2022-08-26T10:18:32.073Z,99417.62
2022-08-26T10:22:31.499Z,99414.41
2022-08-26T10:25:47.913Z,99416.63
2022-08-26T10:29:15.030Z,99410.31
2022-08-26T10:32:31.857Z,99411.34
2022-08-26T10:35:44.971Z,99405.97
2022-08-26T10:38:48.218Z,99410.72
2022-08-26T10:42:02.992Z,99384.56
2022-08-26T10:45:20.049Z,99395.69
2022-08-26T10:48:26.372Z,99397.72
2022-08-26T10:51:57.552Z,99392.69
2022-08-26T10:55:23.344Z,99391.69
2022-08-26T10:58:48.387Z,99381.19
2022-08-26T11:02:29.783Z,99373.56
2022-08-26T11:05:35.571Z,99369.75
2022-08-26T11:08:50.114Z,99370.00
2022-08-26T11:11:54.012Z,99371.06
2022-08-26T11:14:59.354Z,99368.09
2022-08-26T11:18:05.812Z,99369.03
2022-08-26T11:21:47.621Z,99361.16
2022-08-26T11:24:57.196Z,99365.38
2022-08-26T11:28:05.543Z,99353.13
2022-08-26T11:35:15.135Z,99346.53
2022-08-26T11:38:25.964Z,99344.44
2022-08-26T11:41:31.417Z,99346.84
2022-08-26T11:44:58.165Z,99339.00
2022-08-26T11:48:27.214Z,99337.34
2022-08-26T11:51:31.874Z,99329.84
2022-08-26T11:54:39.956Z,99329.91
2022-08-26T11:57:48.094Z,99328.16
2022-08-26T12:00:58.811Z,99315.28
2022-08-26T12:04:07.569Z,99315.84
2022-08-26T12:07:12.122Z,99308.09
2022-08-26T12:10:29.396Z,99308.69
2022-08-26T12:13:33.109Z,99304.97
2022-08-26T12:16:39.329Z,99305.53
2022-08-26T12:19:44.057Z,99301.50
2022-08-26T12:22:50.496Z,99301.22
2022-08-26T12:26:05.557Z,99297.50
2022-08-26T12:29:27.199Z,99305.84
2022-08-26T12:32:31.701Z,99299.94
2022-08-26T12:35:41.998Z,99293.28
2022-08-26T12:38:47.263Z,99301.94
2022-08-26T12:41:53.376Z,99299.72
2022-08-26T12:45:03.727Z,99291.38
2022-08-26T12:48:26.441Z,99286.06
2022-08-26T12:51:33.306Z,99279.50
2022-08-26T12:54:57.026Z,99279.69
2022-08-26T12:58:14.451Z,99273.38
2022-08-26T13:01:25.109Z,99266.59
2022-08-26T13:04:42.450Z,99263.88
2022-08-26T13:08:12.598Z,99265.28
2022-08-26T13:11:29.193Z,99258.03
2022-08-26T13:14:32.930Z,99245.84
2022-08-26T13:17:37.359Z,99242.66
2022-08-26T13:20:44.470Z,99240.16
2022-08-26T13:23:48.227Z,99237.78
2022-08-26T13:26:54.108Z,99237.28
2022-08-26T13:29:58.266Z,99217.66
2022-08-26T13:33:02.202Z,99221.63
2022-08-26T13:36:07.777Z,99226.59
2022-08-26T13:39:12.382Z,99221.00
2022-08-26T13:42:16.088Z,99229.06
2022-08-26T13:45:19.986Z,99215.37
2022-08-26T13:48:24.759Z,99220.97
2022-08-26T13:51:28.919Z,99214.28
2022-08-26T13:54:32.029Z,99224.78
2022-08-26T13:57:35.957Z,99219.38
2022-08-26T14:00:39.837Z,99223.87
2022-08-26T14:03:44.917Z,99218.88
2022-08-26T14:06:49.108Z,99221.91
2022-08-26T14:09:55.044Z,99219.88
2022-08-26T14:12:59.580Z,99217.91
2022-08-26T14:16:04.799Z,99215.91
2022-08-26T14:19:08.596Z,99218.06
2022-08-26T14:22:11.844Z,99216.03
2022-08-26T14:25:15.239Z,99207.69
2022-08-26T14:28:18.512Z,99205.94
2022-08-26T14:31:25.515Z,99211.62
2022-08-26T14:34:28.913Z,99200.87
2022-08-26T14:37:32.019Z,99199.59
2022-08-26T14:40:37.637Z,99206.34
2022-08-26T14:43:44.002Z,99203.03
2022-08-26T14:46:53.489Z,99205.16
2022-08-26T14:49:58.050Z,99199.00
2022-08-26T14:53:19.767Z,99205.75
2022-08-26T14:56:23.421Z,99202.28
2022-08-26T14:59:32.045Z,99201.84
2022-08-26T15:02:37.362Z,99195.50
2022-08-26T15:05:48.105Z,99190.06
2022-08-26T15:08:51.982Z,99187.97
2022-08-26T15:11:55.614Z,99188.56
2022-08-26T15:14:58.830Z,99178.53
2022-08-26T15:18:02.626Z,99182.69
2022-08-26T15:21:07.699Z,99179.00
2022-08-26T15:24:11.656Z,99181.84
2022-08-26T15:27:14.879Z,99173.31
2022-08-26T15:30:18.583Z,99168.50
2022-08-26T15:33:21.671Z,99167.31
2022-08-26T15:36:26.867Z,99168.56
2022-08-26T15:39:30.793Z,99158.12
2022-08-26T15:42:34.021Z,99159.78
2022-08-26T15:45:37.822Z,99158.53
2022-08-26T15:48:41.077Z,99159.84
2022-08-26T15:51:45.334Z,99153.34
2022-08-26T15:54:49.684Z,99142.69
2022-08-26T15:57:56.215Z,99139.66
2022-08-26T16:01:00.747Z,99141.34
2022-08-26T16:04:06.047Z,99138.56
2022-08-26T16:07:08.904Z,99140.94
2022-08-26T16:10:13.468Z,99137.66
2022-08-26T16:13:16.707Z,99137.16
2022-08-26T16:16:21.765Z,99145.13
2022-08-26T16:19:24.786Z,99133.66
2022-08-26T16:22:28.593Z,99128.00
2022-08-26T16:25:31.951Z,99137.38
2022-08-26T16:28:35.095Z,99133.97
2022-08-26T16:31:39.721Z,99129.28
2022-08-26T16:34:46.934Z,99140.00
2022-08-26T16:38:01.175Z,99125.72
2022-08-26T16:41:05.036Z,99133.00
2022-08-26T16:44:08.965Z,99126.47
2022-08-26T16:47:19.070Z,99130.91
2022-08-26T16:50:23.560Z,99139.00
2022-08-26T16:53:27.057Z,99136.56
2022-08-26T16:56:34.125Z,99139.69
2022-08-26T16:59:40.675Z,99142.97
2022-08-26T17:02:43.985Z,99133.53
2022-08-26T17:05:47.144Z,99138.53
2022-08-26T17:08:51.074Z,99132.06
2022-08-26T17:11:55.323Z,99134.88
2022-08-26T17:14:58.219Z,99125.69
2022-08-26T17:18:01.894Z,99124.41
2022-08-26T17:21:08.543Z,99127.88
2022-08-26T17:24:12.467Z,99131.16
2022-08-26T17:27:16.787Z,99129.19
2022-08-26T17:30:23.439Z,99124.69
2022-08-26T17:33:29.484Z,99113.94
2022-08-26T17:36:35.211Z,99116.53
2022-08-26T17:39:42.756Z,99123.09
2022-08-26T17:42:45.992Z,99122.94
2022-08-26T17:45:49.577Z,99111.16
2022-08-26T17:49:07.868Z,99122.63
2022-08-26T17:52:14.533Z,99106.72
2022-08-26T17:55:18.841Z,99109.00
2022-08-26T17:58:25.036Z,99112.69
2022-08-26T18:01:29.544Z,99112.03
2022-08-26T18:04:34.639Z,99111.28
2022-08-26T18:07:43.779Z,99115.13
2022-08-26T18:10:47.722Z,99115.16
2022-08-26T18:13:51.310Z,99127.38
2022-08-26T18:16:55.831Z,99121.56
2022-08-26T18:20:00.913Z,99119.81
2022-08-26T18:23:06.028Z,99121.62
2022-08-26T18:26:31.777Z,99117.81
2022-08-26T18:29:36.204Z,99129.47
2022-08-26T18:32:52.157Z,99123.91
2022-08-26T18:35:58.947Z,99125.41
2022-08-26T18:39:02.210Z,99118.06
2022-08-26T18:42:06.725Z,99120.38
2022-08-26T18:45:16.264Z,99125.94
2022-08-26T18:48:21.323Z,99132.28
2022-08-26T18:51:29.859Z,99126.19
2022-08-26T18:54:33.334Z,99124.69
2022-08-26T18:57:36.390Z,99130.50
2022-08-26T19:00:39.581Z,99137.84
2022-08-26T19:03:45.018Z,99134.06
2022-08-26T19:06:51.068Z,99135.84
2022-08-26T19:09:54.779Z,99131.03
2022-08-26T19:13:10.037Z,99144.47
2022-08-26T19:16:18.888Z,99144.44
2022-08-26T19:19:26.474Z,99148.19
2022-08-26T19:22:49.750Z,99157.31
2022-08-26T19:25:53.471Z,99149.97
2022-08-26T19:28:57.164Z,99156.03
2022-08-26T19:32:01.250Z,99160.31
2022-08-26T19:35:04.663Z,99158.81
2022-08-26T19:38:09.794Z,99162.34
2022-08-26T19:41:15.664Z,99172.22
2022-08-26T19:44:40.222Z,99161.59
2022-08-26T19:47:43.704Z,99165.66
2022-08-26T19:50:47.387Z,99167.88
2022-08-26T19:53:51.290Z,99160.81
2022-08-26T19:56:56.254Z,99167.38
2022-08-26T20:00:17.810Z,99167.38
2022-08-26T20:03:24.824Z,99169.94
2022-08-26T20:06:35.160Z,99171.94
2022-08-26T20:09:40.649Z,99173.69
2022-08-26T20:12:45.129Z,99180.25
2022-08-26T20:15:48.900Z,99173.16
2022-08-26T20:19:13.681Z,99180.25
2022-08-26T20:22:17.872Z,99185.84
2022-08-26T20:25:22.046Z,99185.81
2022-08-26T20:28:25.666Z,99180.50
2022-08-26T20:31:29.529Z,99182.94
2022-08-26T20:34:33.188Z,99188.72
2022-08-26T20:37:37.882Z,99189.44
2022-08-26T20:40:42.412Z,99197.03
2022-08-26T20:43:46.404Z,99198.75
2022-08-26T20:46:50.825Z,99206.59
2022-08-26T20:49:53.964Z,99214.13
2022-08-26T20:53:01.237Z,99210.59
2022-08-26T20:56:07.318Z,99211.84
2022-08-26T21:03:52.882Z,99218.69
2022-08-26T21:07:33.745Z,99216.37
2022-08-26T21:10:39.237Z,99208.47
2022-08-26T21:14:04.076Z,99211.31
2022-08-26T21:40:38.958Z,99208.47
2022-08-26T21:43:48.166Z,99216.37
2022-08-26T22:39:29.337Z,99199.34
2022-08-26T22:42:33.905Z,99181.34
2022-08-26T22:45:46.942Z,99187.41
2022-08-26T22:48:54.002Z,99191.16
2022-08-26T22:51:58.719Z,99188.13
2022-08-26T22:59:08.886Z,99194.19
2022-08-26T23:02:13.625Z,99195.16
2022-08-26T23:13:53.353Z,99190.72
2022-08-26T23:17:38.699Z,99184.53
2022-08-26T23:21:05.295Z,99181.97
2022-08-26T23:24:10.673Z,99176.03
2022-08-26T23:27:14.190Z,99176.13
2022-08-26T23:30:23.388Z,99175.88
2022-08-26T23:33:47.845Z,99177.56
2022-08-26T23:36:52.845Z,99174.22
2022-08-26T23:39:58.877Z,99167.81
2022-08-26T23:43:06.806Z,99162.28
2022-08-26T23:46:10.629Z,99156.06
2022-08-26T23:49:29.515Z,99158.41
2022-08-26T23:52:51.545Z,99160.09
2022-08-26T23:55:56.781Z,99161.69
2022-08-26T23:59:00.968Z,99164.06
